createdAt,value
2022-09-24T00:01:36.678Z,8.25
2022-09-24T00:04:06.843Z,8.42
2022-09-24T00:06:42.370Z,8.21
2022-09-24T00:09:10.438Z,8.22
2022-09-24T00:11:39.110Z,8.32
2022-09-24T00:14:07.202Z,8.37
2022-09-24T00:16:35.128Z,8.47
2022-09-24T00:19:04.305Z,8.28
2022-09-24T00:21:36.455Z,8.13
2022-09-24T00:24:33.189Z,8.43
2022-09-24T00:27:01.026Z,8.45
2022-09-24T00:29:28.018Z,8.24
2022-09-24T00:31:55.103Z,8.41
2022-09-24T00:34:22.330Z,8.16
2022-09-24T00:36:49.337Z,8.29
2022-09-24T00:39:16.781Z,8.18
2022-09-24T00:41:48.121Z,8.29
2022-09-24T00:44:40.953Z,8.28
2022-09-24T00:47:23.519Z,8.24
2022-09-24T00:49:51.368Z,8.06
2022-09-24T00:52:19.931Z,8.18
2022-09-24T00:54:47.336Z,8.12
2022-09-24T00:57:14.807Z,7.93
2022-09-24T00:59:43.877Z,8.13
2022-09-24T01:02:11.146Z,8.08
2022-09-24T01:04:38.359Z,7.88
2022-09-24T01:07:05.237Z,8.07
2022-09-24T01:09:32.432Z,7.89
2022-09-24T01:12:18.991Z,8.08
2022-09-24T01:15:41.033Z,7.88
2022-09-24T01:18:19.754Z,7.97
2022-09-24T01:21:05.227Z,7.95
2022-09-24T01:23:48.995Z,7.96
2022-09-24T01:26:37.282Z,7.95
2022-09-24T01:29:21.830Z,7.91
2022-09-24T01:32:02.196Z,7.89
2022-09-24T01:34:35.231Z,7.76
2022-09-24T01:37:03.719Z,7.81
2022-09-24T01:39:33.372Z,7.63
2022-09-24T01:42:01.084Z,7.65
2022-09-24T01:44:28.188Z,7.81
2022-09-24T01:46:55.858Z,7.52
2022-09-24T01:49:22.993Z,7.42
2022-09-24T01:51:58.602Z,7.52
2022-09-24T01:54:28.583Z,7.70
2022-09-24T01:57:17.547Z,7.70
2022-09-24T01:59:49.994Z,7.72
2022-09-24T02:02:27.880Z,7.55
2022-09-24T02:05:03.688Z,7.57
2022-09-24T02:07:54.959Z,7.47
2022-09-24T02:10:21.958Z,7.54
2022-09-24T02:12:58.883Z,7.07
2022-09-24T02:15:32.868Z,7.52
2022-09-24T02:18:06.640Z,7.43
2022-09-24T02:20:36.303Z,7.52
2022-09-24T02:23:05.494Z,7.35
2022-09-24T02:25:43.107Z,7.24
2022-09-24T02:28:10.302Z,7.31
2022-09-24T02:30:46.752Z,7.43
2022-09-24T02:33:34.455Z,7.13
2022-09-24T02:36:01.776Z,7.37
2022-09-24T02:38:28.763Z,7.10
2022-09-24T02:40:56.536Z,7.28
2022-09-24T02:43:23.607Z,7.29
2022-09-24T02:45:50.532Z,7.23
2022-09-24T02:48:17.521Z,7.08
2022-09-24T02:50:44.433Z,7.13
2022-09-24T02:53:11.298Z,6.99
2022-09-24T02:55:38.188Z,7.29
2022-09-24T02:58:05.180Z,7.19
2022-09-24T03:00:32.110Z,6.93
2022-09-24T03:02:59.343Z,7.14
2022-09-24T03:05:26.350Z,7.11
2022-09-24T03:07:53.251Z,6.81
2022-09-24T03:10:20.114Z,7.10
2022-09-24T03:12:47.015Z,6.99
2022-09-24T03:15:14.012Z,7.03
2022-09-24T03:17:40.982Z,6.73
2022-09-24T03:20:08.385Z,7.02
2022-09-24T03:22:35.374Z,7.01
2022-09-24T03:25:03.296Z,6.91
2022-09-24T03:27:30.226Z,6.65
2022-09-24T03:30:15.428Z,6.90
2022-09-24T03:32:42.142Z,6.83
2022-09-24T03:35:11.434Z,6.70
2022-09-24T03:37:38.386Z,6.81
2022-09-24T03:40:08.058Z,6.64
2022-09-24T03:42:35.293Z,6.53
2022-09-24T03:45:02.244Z,6.50
2022-09-24T03:47:29.437Z,6.82
2022-09-24T03:49:56.406Z,6.67
2022-09-24T03:52:24.259Z,6.75
2022-09-24T03:54:51.127Z,6.52
2022-09-24T03:57:18.202Z,6.75
2022-09-24T03:59:45.756Z,6.62
2022-09-24T04:02:13.157Z,6.72
2022-09-24T04:04:40.259Z,6.66
2022-09-24T04:07:07.166Z,6.20
2022-09-24T04:09:34.109Z,6.06
2022-09-24T04:12:01.410Z,6.49
2022-09-24T04:14:28.412Z,6.69
2022-09-24T04:16:55.383Z,6.64
2022-09-24T04:19:22.322Z,6.56
2022-09-24T04:21:49.268Z,6.64
2022-09-24T04:24:16.431Z,6.35
2022-09-24T04:26:43.335Z,6.61
2022-09-24T04:29:10.429Z,6.46
2022-09-24T04:31:37.457Z,6.64
2022-09-24T04:34:04.434Z,6.36
2022-09-24T04:36:31.312Z,6.36
2022-09-24T04:38:58.230Z,6.33
2022-09-24T04:41:25.130Z,6.33
2022-09-24T04:43:51.991Z,6.51
2022-09-24T04:46:19.319Z,6.35
2022-09-24T04:48:46.269Z,6.44
2022-09-24T04:51:13.265Z,6.21
2022-09-24T04:53:40.779Z,6.35
2022-09-24T04:56:12.197Z,6.47
2022-09-24T04:58:39.784Z,6.46
2022-09-24T05:01:06.858Z,6.50
2022-09-24T05:03:33.815Z,6.53
2022-09-24T05:06:02.038Z,6.49
2022-09-24T05:08:28.928Z,6.69
2022-09-24T05:10:55.855Z,6.45
2022-09-24T05:13:22.957Z,6.69
2022-09-24T05:15:49.933Z,6.54
2022-09-24T05:18:16.854Z,6.43
2022-09-24T05:20:43.721Z,6.66
2022-09-24T05:23:10.820Z,6.94
2022-09-24T05:25:57.625Z,6.64
2022-09-24T05:28:24.725Z,6.95
2022-09-24T05:30:51.731Z,7.11
2022-09-24T05:33:18.851Z,7.21
2022-09-24T05:35:52.863Z,7.27
2022-09-24T05:38:19.882Z,7.33
2022-09-24T05:40:50.199Z,7.42
2022-09-24T05:43:19.511Z,7.45
2022-09-24T05:45:46.572Z,7.47
2022-09-24T05:48:13.701Z,7.62
2022-09-24T05:50:40.569Z,7.69
2022-09-24T05:53:07.814Z,7.55
2022-09-24T05:55:35.189Z,7.88
2022-09-24T05:58:07.478Z,7.52
2022-09-24T06:00:36.230Z,7.99
2022-09-24T06:03:06.778Z,7.99
2022-09-24T06:05:35.949Z,8.14
2022-09-24T06:08:08.199Z,8.26
2022-09-24T06:10:37.228Z,8.07
2022-09-24T06:13:05.239Z,8.42
2022-09-24T06:15:32.151Z,8.44
2022-09-24T06:17:59.094Z,8.40
2022-09-24T06:20:26.147Z,8.35
2022-09-24T06:22:57.616Z,8.72
2022-09-24T06:25:26.030Z,8.70
2022-09-24T06:28:01.607Z,8.96
2022-09-24T06:30:46.354Z,8.95
2022-09-24T06:33:14.297Z,9.12
2022-09-24T06:35:43.509Z,9.24
2022-09-24T06:38:17.007Z,9.21
2022-09-24T06:40:51.268Z,9.42
2022-09-24T06:43:18.273Z,9.52
2022-09-24T06:45:45.909Z,8.98
2022-09-24T06:48:14.548Z,9.33
2022-09-24T06:50:43.785Z,9.59
2022-09-24T06:53:12.611Z,9.81
2022-09-24T06:55:39.677Z,9.76
2022-09-24T06:58:20.174Z,10.05
2022-09-24T07:00:59.042Z,10.13
2022-09-24T07:03:28.024Z,10.07
2022-09-24T07:05:55.538Z,10.32
2022-09-24T07:08:22.610Z,10.29
2022-09-24T07:10:50.324Z,10.30
2022-09-24T07:13:17.508Z,10.57
2022-09-24T07:15:45.030Z,10.27
2022-09-24T07:18:12.712Z,10.56
2022-09-24T07:20:40.391Z,10.68
2022-09-24T07:23:09.524Z,10.87
2022-09-24T07:25:37.548Z,10.98
2022-09-24T07:28:07.763Z,11.02
2022-09-24T07:30:35.982Z,11.17
2022-09-24T07:33:03.257Z,11.35
2022-09-24T07:35:30.441Z,11.41
2022-09-24T07:38:02.394Z,11.48
2022-09-24T07:40:31.277Z,11.40
2022-09-24T07:42:59.357Z,11.68
2022-09-24T07:45:29.097Z,11.55
2022-09-24T07:48:03.816Z,11.79
2022-09-24T07:50:34.050Z,11.76
2022-09-24T07:53:01.257Z,11.51
2022-09-24T07:55:28.223Z,12.02
2022-09-24T07:57:56.875Z,12.04
2022-09-24T08:00:25.324Z,12.09
2022-09-24T08:02:53.975Z,11.91
2022-09-24T08:05:21.082Z,12.31
2022-09-24T08:07:55.926Z,12.10
2022-09-24T08:10:24.149Z,12.21
2022-09-24T08:12:51.355Z,12.59
2022-09-24T08:15:19.578Z,12.62
2022-09-24T08:17:46.497Z,12.72
2022-09-24T08:20:14.236Z,12.81
2022-09-24T08:22:41.282Z,12.74
2022-09-24T08:25:08.743Z,13.07
2022-09-24T08:27:37.628Z,13.04
2022-09-24T08:30:05.717Z,13.30
2022-09-24T08:32:32.715Z,13.26
2022-09-24T08:34:59.678Z,13.27
2022-09-24T08:37:28.319Z,13.64
2022-09-24T08:39:55.327Z,13.76
2022-09-24T08:42:49.557Z,13.91
2022-09-24T08:45:36.321Z,13.96
2022-09-24T08:48:15.290Z,14.07
2022-09-24T08:50:52.547Z,14.17
2022-09-24T08:53:27.670Z,14.12
2022-09-24T08:55:58.186Z,14.45
2022-09-24T08:58:45.834Z,14.46
2022-09-24T09:01:21.574Z,14.73
2022-09-24T09:04:06.233Z,14.61
2022-09-24T09:06:52.028Z,14.85
2022-09-24T09:09:26.204Z,14.96
2022-09-24T09:12:01.053Z,14.92
2022-09-24T09:14:46.134Z,15.29
2022-09-24T09:17:25.481Z,15.10
2022-09-24T09:19:58.249Z,15.22
2022-09-24T09:22:34.238Z,15.54
2022-09-24T09:25:15.780Z,15.60
2022-09-24T09:27:42.823Z,15.56
2022-09-24T09:30:16.236Z,15.87
2022-09-24T09:32:43.095Z,16.04
2022-09-24T09:35:22.331Z,16.13
2022-09-24T09:38:07.323Z,16.19
2022-09-24T09:40:46.086Z,16.28
2022-09-24T09:43:15.465Z,16.06
2022-09-24T09:45:56.526Z,16.50
2022-09-24T09:48:28.350Z,16.36
2022-09-24T09:51:05.151Z,16.56
2022-09-24T09:53:32.417Z,16.60
2022-09-24T09:56:03.123Z,16.77
2022-09-24T09:58:47.542Z,16.80
2022-09-24T10:01:18.736Z,16.91
2022-09-24T10:03:52.029Z,17.01
2022-09-24T10:06:27.746Z,17.15
2022-09-24T10:09:05.991Z,17.16
2022-09-24T10:11:33.007Z,17.33
2022-09-24T10:14:04.986Z,17.05
2022-09-24T10:16:38.270Z,17.22
2022-09-24T10:19:21.691Z,17.18
2022-09-24T10:21:50.557Z,17.63
2022-09-24T10:24:21.548Z,17.72
2022-09-24T10:26:49.690Z,17.68
2022-09-24T10:29:49.248Z,17.65
2022-09-24T10:32:29.629Z,17.96
2022-09-24T10:35:01.507Z,18.04
2022-09-24T10:37:30.164Z,18.09
2022-09-24T10:40:02.192Z,18.18
2022-09-24T10:42:31.160Z,18.10
2022-09-24T10:45:03.693Z,18.21
2022-09-24T10:47:45.537Z,18.39
2022-09-24T10:50:31.659Z,18.50
2022-09-24T10:53:09.019Z,18.37
2022-09-24T10:56:04.067Z,18.57
2022-09-24T10:58:48.325Z,18.70
2022-09-24T11:01:42.798Z,18.80
2022-09-24T11:04:28.438Z,18.90
2022-09-24T11:07:42.989Z,18.98
2022-09-24T11:10:50.050Z,18.99
2022-09-24T11:13:36.246Z,19.07
2022-09-24T11:16:21.340Z,18.97
2022-09-24T11:19:00.846Z,19.22
2022-09-24T11:21:53.661Z,19.22
2022-09-24T11:24:34.266Z,19.24
2022-09-24T11:27:33.747Z,19.24
2022-09-24T11:30:03.263Z,19.16
2022-09-24T11:33:01.835Z,19.09
2022-09-24T11:35:35.681Z,18.98
2022-09-24T11:38:10.510Z,19.03
2022-09-24T11:40:47.730Z,19.01
2022-09-24T11:43:18.233Z,18.87
2022-09-24T11:46:23.844Z,18.91
2022-09-24T11:49:15.393Z,18.99
2022-09-24T11:51:42.237Z,18.93
2022-09-24T11:54:40.440Z,18.90
2022-09-24T11:57:16.259Z,18.92
2022-09-24T11:59:49.402Z,18.83
2022-09-24T12:02:24.071Z,18.56
2022-09-24T12:05:29.773Z,18.65
2022-09-24T12:08:02.652Z,18.62
2022-09-24T12:10:37.528Z,18.41
2022-09-24T12:13:20.542Z,18.37
2022-09-24T12:16:08.419Z,18.19
2022-09-24T12:18:45.440Z,18.27
2022-09-24T12:21:19.141Z,18.02
2022-09-24T12:23:49.407Z,18.36
2022-09-24T12:26:17.974Z,17.32
2022-09-24T12:29:48.284Z,18.29
2022-09-24T12:32:57.147Z,18.41
2022-09-24T12:35:42.888Z,18.52
2022-09-24T12:38:37.947Z,18.31
2022-09-24T12:41:20.480Z,18.47
2022-09-24T12:43:54.161Z,18.42
2022-09-24T12:46:26.444Z,18.32
2022-09-24T12:48:54.772Z,18.58
2022-09-24T12:51:22.944Z,18.20
2022-09-24T12:54:06.073Z,18.39
2022-09-24T12:56:35.052Z,18.51
2022-09-24T12:59:05.813Z,18.27
2022-09-24T13:01:34.549Z,18.46
2022-09-24T13:04:14.870Z,18.34
2022-09-24T13:06:45.139Z,18.34
2022-09-24T13:09:35.970Z,18.46
2022-09-24T13:12:03.086Z,18.47
2022-09-24T13:14:33.500Z,18.45
2022-09-24T13:17:06.951Z,18.44
2022-09-24T13:19:44.545Z,18.51
2022-09-24T13:22:32.070Z,18.65
2022-09-24T13:25:07.877Z,18.76
2022-09-24T13:27:38.066Z,18.73
2022-09-24T13:30:18.576Z,18.82
2022-09-24T13:32:59.004Z,18.85
2022-09-24T13:35:35.173Z,18.85
2022-09-24T13:38:20.989Z,18.97
2022-09-24T13:41:04.586Z,19.06
2022-09-24T13:44:10.624Z,19.12
2022-09-24T13:46:41.409Z,19.26
2022-09-24T13:49:19.106Z,19.18
2022-09-24T13:51:51.536Z,19.10
2022-09-24T13:54:26.818Z,19.10
2022-09-24T13:57:10.301Z,19.31
2022-09-24T13:59:37.710Z,19.18
2022-09-24T14:02:22.568Z,19.25
2022-09-24T14:04:58.389Z,19.32
2022-09-24T14:07:27.215Z,19.41
2022-09-24T14:10:07.367Z,19.26
2022-09-24T14:12:34.411Z,19.37
2022-09-24T14:15:04.600Z,19.33
2022-09-24T14:17:31.645Z,19.50
2022-09-24T14:19:59.470Z,19.57
2022-09-24T14:22:39.358Z,19.65
2022-09-24T14:25:22.488Z,19.60
2022-09-24T14:27:51.805Z,19.54
2022-09-24T14:30:20.176Z,19.70
2022-09-24T14:32:53.795Z,19.80
2022-09-24T14:35:31.638Z,19.66
2022-09-24T14:38:04.582Z,19.47
2022-09-24T14:40:40.894Z,19.50
2022-09-24T14:43:36.680Z,19.46
2022-09-24T14:46:17.574Z,19.56
2022-09-24T14:48:44.808Z,19.48
2022-09-24T14:51:26.888Z,19.10
2022-09-24T14:54:19.764Z,19.31
2022-09-24T14:56:46.915Z,19.23
2022-09-24T14:59:28.404Z,19.18
2022-09-24T15:02:11.623Z,19.10
2022-09-24T15:04:38.729Z,18.73
2022-09-24T15:07:05.864Z,18.74
2022-09-24T15:09:32.963Z,18.87
2022-09-24T15:12:10.262Z,18.63
2022-09-24T15:14:37.798Z,18.70
2022-09-24T15:17:21.577Z,18.65
2022-09-24T15:19:48.721Z,18.42
2022-09-24T15:22:15.727Z,18.33
2022-09-24T15:24:42.797Z,18.00
2022-09-24T15:27:23.750Z,17.93
2022-09-24T15:29:51.130Z,18.06
2022-09-24T15:32:20.616Z,18.09
2022-09-24T15:34:48.186Z,17.91
2022-09-24T15:37:24.049Z,17.91
2022-09-24T15:39:52.843Z,17.81
2022-09-24T15:42:24.670Z,17.65
2022-09-24T15:44:52.382Z,17.39
2022-09-24T15:47:19.396Z,17.53
2022-09-24T15:49:46.585Z,17.46
2022-09-24T15:52:28.470Z,17.42
2022-09-24T15:54:58.209Z,17.33
2022-09-24T15:57:28.436Z,17.25
2022-09-24T15:59:55.512Z,17.01
2022-09-24T16:02:27.416Z,17.16
2022-09-24T16:04:54.836Z,17.04
2022-09-24T16:07:21.769Z,17.00
2022-09-24T16:09:48.941Z,16.97
2022-09-24T16:12:17.610Z,16.93
2022-09-24T16:14:45.109Z,16.96
2022-09-24T16:17:12.909Z,16.51
2022-09-24T16:19:39.856Z,16.50
2022-09-24T16:22:06.812Z,16.55
2022-09-24T16:24:35.049Z,16.47
2022-09-24T16:27:02.157Z,16.28
2022-09-24T16:29:29.094Z,16.17
2022-09-24T16:31:56.127Z,16.27
2022-09-24T16:34:23.202Z,15.56
2022-09-24T16:36:50.261Z,15.84
2022-09-24T16:39:17.269Z,15.96
2022-09-24T16:41:44.592Z,15.90
2022-09-24T16:44:15.352Z,15.70
2022-09-24T16:46:45.985Z,15.52
2022-09-24T16:49:13.178Z,15.69
2022-09-24T16:51:40.477Z,15.65
2022-09-24T16:54:07.608Z,15.60
2022-09-24T16:56:34.761Z,15.28
2022-09-24T16:59:01.764Z,15.36
2022-09-24T17:01:28.791Z,15.41
2022-09-24T17:03:57.808Z,15.38
2022-09-24T17:06:30.378Z,15.22
2022-09-24T17:09:16.512Z,15.16
2022-09-24T17:11:46.810Z,15.08
2022-09-24T17:14:14.882Z,15.04
2022-09-24T17:16:42.962Z,15.10
2022-09-24T17:19:11.350Z,14.97
2022-09-24T17:35:10.644Z,14.51
2022-09-24T17:37:37.620Z,14.43
2022-09-24T17:40:05.279Z,14.18
2022-09-24T17:42:33.977Z,13.93
2022-09-24T17:45:01.024Z,14.06
2022-09-24T17:47:47.978Z,14.03
2022-09-24T17:50:16.222Z,13.68
2022-09-24T17:52:43.169Z,13.73
2022-09-24T17:55:10.147Z,13.86
2022-09-24T17:57:37.666Z,13.75
2022-09-24T18:00:06.052Z,13.64
2022-09-24T18:02:38.733Z,13.65
2022-09-24T18:05:07.523Z,13.37
2022-09-24T18:07:34.579Z,13.43
2022-09-24T18:10:01.592Z,13.39
2022-09-24T18:12:28.722Z,13.16
2022-09-24T18:14:55.706Z,13.35
2022-09-24T18:17:22.826Z,13.32
2022-09-24T18:19:49.753Z,13.14
2022-09-24T18:22:16.803Z,13.00
2022-09-24T18:24:44.705Z,13.23
2022-09-24T18:27:15.338Z,13.02
2022-09-24T18:29:44.330Z,12.81
2022-09-24T18:32:11.646Z,12.80
2022-09-24T18:34:38.609Z,12.80
2022-09-24T18:37:06.146Z,12.69
2022-09-24T18:39:33.237Z,12.74
2022-09-24T18:42:00.223Z,12.88
2022-09-24T18:44:27.243Z,12.88
2022-09-24T18:46:54.341Z,12.66
2022-09-24T18:49:21.572Z,12.62
2022-09-24T18:51:49.364Z,12.65
2022-09-24T18:54:18.473Z,12.66
2022-09-24T18:56:46.134Z,12.52
2022-09-24T18:59:16.142Z,12.34
2022-09-24T19:01:44.503Z,12.22
2022-09-24T19:04:13.475Z,12.46
2022-09-24T19:06:43.438Z,12.14
2022-09-24T19:09:12.512Z,12.40
2022-09-24T19:11:40.673Z,12.32
2022-09-24T19:14:07.934Z,12.33
2022-09-24T19:16:34.998Z,12.11
2022-09-24T19:19:02.074Z,12.25
2022-09-24T19:21:29.344Z,12.30
2022-09-24T19:23:58.928Z,12.15
2022-09-24T19:26:29.910Z,12.02
2022-09-24T19:28:57.844Z,12.10
2022-09-24T19:31:29.530Z,12.17
2022-09-24T19:33:57.558Z,12.16
2022-09-24T19:36:24.767Z,12.06
2022-09-24T19:38:52.190Z,12.03
2022-09-24T19:41:27.651Z,12.11
2022-09-24T19:43:57.164Z,12.08
2022-09-24T19:46:26.486Z,11.89
2022-09-24T19:48:55.894Z,12.05
2022-09-24T19:51:25.891Z,12.03
2022-09-24T19:53:55.184Z,11.98
2022-09-24T19:56:25.584Z,12.02
2022-09-24T19:58:59.007Z,12.01
2022-09-24T20:01:31.434Z,11.80
2022-09-24T20:04:02.255Z,11.81
2022-09-24T20:06:33.907Z,12.00
2022-09-24T20:09:01.314Z,11.98
2022-09-24T20:11:29.527Z,11.97
2022-09-24T20:13:57.257Z,12.01
2022-09-24T20:16:26.850Z,11.76
2022-09-24T20:18:57.793Z,11.67
2022-09-24T20:21:27.889Z,11.86
2022-09-24T20:23:57.676Z,11.85
2022-09-24T20:26:44.219Z,11.81
2022-09-24T20:29:13.243Z,11.72
2022-09-24T20:31:53.937Z,11.65
2022-09-24T20:34:28.640Z,11.64
2022-09-24T20:36:59.286Z,11.63
2022-09-24T20:39:26.481Z,11.51
2022-09-24T20:41:53.679Z,11.36
2022-09-24T20:44:22.191Z,11.29
2022-09-24T20:46:49.344Z,11.46
2022-09-24T20:49:23.488Z,11.24
2022-09-24T20:51:56.498Z,11.45
2022-09-24T20:54:28.512Z,11.23
2022-09-24T20:56:56.381Z,11.32
2022-09-24T20:59:25.714Z,11.34
2022-09-24T21:01:54.199Z,11.07
2022-09-24T21:04:44.499Z,11.36
2022-09-24T21:07:11.544Z,11.34
2022-09-24T21:09:38.559Z,11.14
2022-09-24T21:12:06.249Z,10.81
2022-09-24T21:14:35.633Z,11.04
2022-09-24T21:17:03.722Z,10.95
2022-09-24T21:19:32.550Z,11.23
2022-09-24T21:22:01.808Z,11.14
2022-09-24T21:24:31.382Z,11.21
2022-09-24T21:26:59.659Z,11.07
2022-09-24T21:29:26.757Z,11.16
2022-09-24T21:31:53.947Z,10.92
2022-09-24T21:34:21.219Z,11.06
2022-09-24T21:36:48.381Z,11.06
2022-09-24T21:39:26.887Z,11.05
2022-09-24T21:41:55.613Z,10.72
2022-09-24T21:44:22.777Z,11.02
2022-09-24T21:46:52.550Z,11.02
2022-09-24T21:49:20.058Z,11.03
2022-09-24T21:51:47.231Z,10.57
2022-09-24T21:54:17.358Z,10.98
2022-09-24T21:56:45.507Z,10.93
2022-09-24T21:59:31.656Z,10.76
2022-09-24T22:01:59.502Z,10.86
2022-09-24T22:04:27.748Z,10.87
2022-09-24T22:06:54.807Z,10.76
2022-09-24T22:09:24.194Z,10.84
2022-09-24T22:11:52.759Z,10.82
2022-09-24T22:14:19.752Z,10.63
2022-09-24T22:16:47.200Z,10.67
2022-09-24T22:19:14.299Z,10.67
2022-09-24T22:21:41.460Z,10.56
2022-09-24T22:24:08.622Z,10.68
2022-09-24T22:26:35.773Z,10.65
2022-09-24T22:29:04.066Z,10.64
2022-09-24T22:31:32.247Z,10.30
2022-09-24T22:34:18.232Z,10.08
2022-09-24T22:36:45.371Z,10.18
2022-09-24T22:39:12.326Z,10.37
2022-09-24T22:41:40.246Z,9.65
2022-09-24T22:44:07.818Z,9.92
2022-09-24T22:46:36.506Z,9.93
2022-09-24T22:49:05.646Z,9.90
2022-09-24T22:51:33.807Z,9.74
2022-09-24T22:54:01.103Z,9.84
2022-09-24T22:56:28.637Z,9.86
2022-09-24T22:59:00.994Z,9.83
2022-09-24T23:01:34.893Z,9.94
2022-09-24T23:04:02.818Z,9.63
2022-09-24T23:06:31.514Z,9.61
2022-09-24T23:08:58.831Z,9.87
2022-09-24T23:11:29.289Z,9.76
2022-09-24T23:14:05.366Z,9.79
2022-09-24T23:16:35.146Z,9.76
2022-09-24T23:19:05.880Z,9.56
2022-09-24T23:21:34.021Z,9.48
2022-09-24T23:24:12.573Z,9.75
2022-09-24T23:26:39.492Z,9.72
2022-09-24T23:29:06.940Z,9.41
2022-09-24T23:31:35.988Z,9.71
2022-09-24T23:34:04.180Z,9.63
2022-09-24T23:36:32.721Z,9.69
2022-09-24T23:39:01.008Z,9.63
2022-09-24T23:41:30.016Z,9.45
2022-09-24T23:43:57.267Z,9.55
2022-09-24T23:46:24.572Z,9.36
2022-09-24T23:48:51.651Z,9.47
2022-09-24T23:51:18.855Z,9.20
2022-09-24T23:53:45.877Z,9.35
2022-09-24T23:56:13.580Z,9.38
2022-09-24T23:58:42.223Z,9.41
